createdAt,value
2023-04-01T00:01:26.400Z,6.20
2023-04-01T00:02:59.670Z,6.53
2023-04-01T00:04:33.448Z,5.25
2023-04-01T00:06:07.382Z,5.25
2023-04-01T00:07:41.365Z,5.63
2023-04-01T00:09:14.644Z,6.22
2023-04-01T00:10:46.968Z,6.05
2023-04-01T00:12:20.261Z,6.47
2023-04-01T00:13:53.389Z,7.10
2023-04-01T00:15:25.690Z,9.57
2023-04-01T00:16:59.231Z,7.75
2023-04-01T00:18:31.844Z,7.20
2023-04-01T00:20:05.787Z,7.50
2023-04-01T00:21:40.452Z,6.35
2023-04-01T00:23:12.792Z,6.15
2023-04-01T00:24:45.995Z,6.35
2023-04-01T00:26:21.475Z,6.15
2023-04-01T00:27:54.684Z,6.55
2023-04-01T00:29:30.280Z,5.35
2023-04-01T00:31:07.330Z,6.43
2023-04-01T00:32:40.877Z,6.00
2023-04-01T00:34:14.831Z,5.97
2023-04-01T00:35:48.804Z,6.57
2023-04-01T00:37:23.908Z,6.53
2023-04-01T00:38:57.183Z,6.45
2023-04-01T00:40:33.542Z,7.32
2023-04-01T00:42:07.151Z,6.43
2023-04-01T00:43:40.379Z,6.80
2023-04-01T00:45:29.303Z,7.10
2023-04-01T00:47:03.339Z,7.78
2023-04-01T00:48:40.568Z,7.75
2023-04-01T00:50:13.098Z,8.25
2023-04-01T00:51:49.182Z,7.38
2023-04-01T00:53:25.003Z,6.22
2023-04-01T00:55:02.225Z,6.80
2023-04-01T00:56:38.211Z,6.38
2023-04-01T00:58:15.700Z,6.03
2023-04-01T00:59:53.815Z,6.47
2023-04-01T01:01:28.137Z,7.15
2023-04-01T01:03:01.565Z,5.78
2023-04-01T01:04:36.443Z,6.50
2023-04-01T01:06:26.317Z,5.72
2023-04-01T01:08:07.231Z,5.70
2023-04-01T01:09:53.312Z,5.22
2023-04-01T01:11:42.619Z,5.75
2023-04-01T01:13:21.510Z,5.22
2023-04-01T01:15:02.452Z,5.72
2023-04-01T01:16:41.863Z,5.53
2023-04-01T01:18:22.003Z,5.70
2023-04-01T01:20:50.599Z,6.07
2023-04-01T01:22:38.237Z,5.53
2023-04-01T01:24:36.678Z,7.53
2023-04-01T01:26:38.913Z,11.90
2023-04-01T01:28:31.044Z,8.70
2023-04-01T01:30:27.785Z,7.65
2023-04-01T01:32:07.807Z,9.25
2023-04-01T01:34:10.205Z,9.52
2023-04-01T01:35:48.760Z,12.80
2023-04-01T01:37:29.617Z,12.05
2023-04-01T01:39:04.978Z,9.90
2023-04-01T01:40:40.631Z,8.23
2023-04-01T01:42:18.113Z,8.27
2023-04-01T01:43:53.910Z,8.63
2023-04-01T01:45:28.657Z,8.75
2023-04-01T01:47:03.245Z,9.63
2023-04-01T01:48:37.146Z,7.97
2023-04-01T01:50:12.978Z,7.90
2023-04-01T01:51:49.159Z,7.63
2023-04-01T01:53:21.667Z,7.35
2023-04-01T01:54:57.469Z,6.57
2023-04-01T01:56:36.478Z,6.07
2023-04-01T01:58:13.221Z,6.43
2023-04-01T01:59:49.819Z,5.30
2023-04-01T02:01:33.650Z,5.68
2023-04-01T02:03:17.272Z,6.13
2023-04-01T02:04:51.830Z,5.47
2023-04-01T02:06:27.898Z,5.07
2023-04-01T02:08:08.804Z,5.78
2023-04-01T02:09:42.828Z,7.13
2023-04-01T02:11:21.211Z,6.30
2023-04-01T02:13:02.253Z,6.97
2023-04-01T02:14:42.265Z,6.40
2023-04-01T02:16:22.040Z,5.93
2023-04-01T02:17:58.160Z,6.45
2023-04-01T02:19:36.238Z,6.20
2023-04-01T02:21:11.277Z,6.28
2023-04-01T02:22:49.380Z,5.25
2023-04-01T02:24:25.799Z,5.68
2023-04-01T02:25:59.026Z,5.68
2023-04-01T02:27:33.142Z,5.78
2023-04-01T02:29:09.254Z,6.13
2023-04-01T02:30:45.299Z,5.50
2023-04-01T02:32:21.558Z,5.50
2023-04-01T02:33:55.695Z,5.93
2023-04-01T02:35:28.172Z,5.32
2023-04-01T02:37:01.715Z,7.30
2023-04-01T02:38:37.493Z,7.57
2023-04-01T02:40:14.697Z,6.10
2023-04-01T02:41:48.352Z,6.63
2023-04-01T02:43:22.491Z,6.20
2023-04-01T02:44:55.710Z,5.68
2023-04-01T02:46:29.098Z,5.65
2023-04-01T02:48:01.245Z,6.00
2023-04-01T02:49:34.555Z,6.15
2023-04-01T02:51:07.694Z,5.85
2023-04-01T02:52:41.124Z,5.70
2023-04-01T02:54:14.788Z,5.78
2023-04-01T02:55:52.884Z,5.80
2023-04-01T02:57:26.670Z,5.20
2023-04-01T02:59:00.062Z,6.10
2023-04-01T03:00:33.171Z,5.43
2023-04-01T03:02:07.763Z,5.57
2023-04-01T03:03:41.115Z,5.97
2023-04-01T03:05:13.849Z,5.65
2023-04-01T03:06:47.156Z,6.00
2023-04-01T03:08:20.432Z,6.05
2023-04-01T03:09:53.562Z,6.20
2023-04-01T03:11:28.457Z,5.90
2023-04-01T03:13:01.581Z,5.55
2023-04-01T03:14:34.893Z,6.53
2023-04-01T03:16:08.193Z,6.53
2023-04-01T03:17:43.232Z,6.35
2023-04-01T03:19:16.054Z,6.43
2023-04-01T03:20:49.871Z,6.47
2023-04-01T03:22:23.400Z,6.28
2023-04-01T03:23:55.913Z,9.23
2023-04-01T03:25:29.707Z,6.63
2023-04-01T03:27:04.741Z,7.93
2023-04-01T03:28:36.867Z,6.55
2023-04-01T03:30:11.775Z,6.40
2023-04-01T03:31:53.931Z,5.32
2023-04-01T03:33:26.290Z,6.05
2023-04-01T03:34:59.706Z,6.60
2023-04-01T03:36:33.299Z,7.00
2023-04-01T03:38:06.900Z,7.20
2023-04-01T03:39:41.388Z,6.40
2023-04-01T03:41:15.841Z,8.32
2023-04-01T03:42:51.847Z,9.65
2023-04-01T03:44:25.675Z,7.50
2023-04-01T03:45:59.915Z,7.78
2023-04-01T03:47:33.378Z,7.60
2023-04-01T03:49:12.506Z,6.38
2023-04-01T03:50:46.860Z,6.88
2023-04-01T03:52:22.031Z,6.50
2023-04-01T03:53:55.470Z,7.28
2023-04-01T03:55:28.096Z,6.68
2023-04-01T03:57:01.543Z,7.38
2023-04-01T03:58:37.850Z,7.22
2023-04-01T04:00:13.650Z,6.60
2023-04-01T04:01:53.240Z,6.32
2023-04-01T04:03:27.363Z,6.60
2023-04-01T04:05:00.818Z,6.47
2023-04-01T04:06:35.778Z,7.95
2023-04-01T04:08:09.195Z,7.40
2023-04-01T04:09:43.388Z,5.97
2023-04-01T04:11:17.326Z,6.70
2023-04-01T04:12:51.969Z,5.93
2023-04-01T04:14:28.529Z,6.72
2023-04-01T04:16:02.115Z,6.53
2023-04-01T04:17:37.711Z,6.65
2023-04-01T04:19:10.918Z,8.35
2023-04-01T04:20:48.225Z,15.85
2023-04-01T04:22:21.743Z,11.10
2023-04-01T04:23:55.127Z,8.98
2023-04-01T04:25:28.783Z,6.88
2023-04-01T04:27:02.183Z,6.05
2023-04-01T04:28:35.900Z,6.80
2023-04-01T04:30:12.035Z,10.55
2023-04-01T04:31:45.370Z,7.78
2023-04-01T04:33:18.393Z,9.80
2023-04-01T04:34:51.848Z,10.70
2023-04-01T04:36:26.148Z,8.35
2023-04-01T04:37:58.950Z,8.00
2023-04-01T04:39:33.050Z,7.05
2023-04-01T04:41:11.328Z,5.80
2023-04-01T04:42:44.936Z,6.28
2023-04-01T04:44:22.058Z,6.63
2023-04-01T04:45:56.905Z,6.45
2023-04-01T04:47:29.152Z,9.93
2023-04-01T04:49:02.603Z,12.45
2023-04-01T04:50:35.728Z,17.58
2023-04-01T04:52:09.311Z,24.27
2023-04-01T04:53:42.627Z,20.77
2023-04-01T04:55:16.196Z,18.00
2023-04-01T04:56:53.804Z,10.68
2023-04-01T04:58:28.415Z,10.93
2023-04-01T05:00:02.090Z,14.75
2023-04-01T05:01:50.931Z,12.45
2023-04-01T05:03:24.247Z,11.25
2023-04-01T05:04:57.682Z,11.05
2023-04-01T05:06:32.409Z,9.70
2023-04-01T05:08:06.183Z,7.90
2023-04-01T05:09:39.388Z,10.18
2023-04-01T05:11:16.035Z,11.52
2023-04-01T05:12:49.306Z,10.13
2023-04-01T05:14:25.940Z,9.80
2023-04-01T05:16:09.597Z,12.48
2023-04-01T05:17:45.156Z,10.13
2023-04-01T05:19:18.423Z,8.68
2023-04-01T05:20:53.044Z,9.63
2023-04-01T05:22:26.521Z,8.60
2023-04-01T05:24:00.005Z,8.77
2023-04-01T05:25:34.333Z,8.50
2023-04-01T05:27:07.930Z,9.05
2023-04-01T05:28:45.043Z,11.00
2023-04-01T05:30:18.667Z,12.57
2023-04-01T05:32:14.866Z,11.70
2023-04-01T05:33:49.546Z,12.48
2023-04-01T05:35:22.968Z,17.20
2023-04-01T05:36:55.174Z,21.33
2023-04-01T05:38:28.369Z,22.45
2023-04-01T05:40:01.773Z,21.38
2023-04-01T05:41:38.451Z,20.13
2023-04-01T05:43:11.652Z,27.23
2023-04-01T05:44:45.647Z,20.67
2023-04-01T05:46:38.143Z,18.65
2023-04-01T05:48:27.023Z,18.52
2023-04-01T05:50:02.441Z,18.70
2023-04-01T05:51:35.759Z,20.92
2023-04-01T05:53:09.102Z,21.50
2023-04-01T05:54:43.946Z,20.88
2023-04-01T05:56:17.501Z,21.13
2023-04-01T05:57:56.233Z,19.65
2023-04-01T05:59:32.171Z,21.55
2023-04-01T06:01:11.469Z,22.30
2023-04-01T06:02:50.262Z,26.00
2023-04-01T06:04:23.754Z,24.27
2023-04-01T06:05:58.697Z,28.70
2023-04-01T06:07:32.041Z,28.98
2023-04-01T06:09:14.392Z,27.85
2023-04-01T06:11:07.026Z,26.50
2023-04-01T06:12:52.563Z,24.02
2023-04-01T06:14:38.337Z,24.63
2023-04-01T06:16:21.385Z,26.60
2023-04-01T06:18:27.907Z,23.50
2023-04-01T06:20:11.730Z,21.83
2023-04-01T06:22:18.379Z,18.70
2023-04-01T06:24:07.600Z,19.50
2023-04-01T06:26:00.256Z,17.58
2023-04-01T06:27:52.764Z,17.60
2023-04-01T06:29:51.213Z,15.40
2023-04-01T06:31:50.865Z,14.88
2023-04-01T06:33:45.990Z,13.93
2023-04-01T06:35:40.692Z,14.65
2023-04-01T06:37:38.597Z,16.70
2023-04-01T06:39:30.286Z,16.95
2023-04-01T06:41:18.389Z,15.52
2023-04-01T06:43:10.108Z,15.20
2023-04-01T06:45:35.472Z,10.32
2023-04-01T06:47:45.647Z,12.55
2023-04-01T06:49:50.428Z,15.90
2023-04-01T06:51:52.636Z,9.93
2023-04-01T06:53:56.998Z,14.70
2023-04-01T06:56:12.800Z,10.13
2023-04-01T06:58:24.410Z,10.15
2023-04-01T07:00:02.505Z,9.63
2023-04-01T07:01:40.104Z,10.32
2023-04-01T07:03:24.359Z,10.00
2023-04-01T07:05:00.219Z,12.95
2023-04-01T07:06:37.787Z,16.40
2023-04-01T07:08:15.870Z,17.08
2023-04-01T07:09:54.366Z,21.73
2023-04-01T07:11:39.749Z,22.15
2023-04-01T07:13:37.472Z,21.25
2023-04-01T07:15:23.406Z,23.88
2023-04-01T07:17:03.248Z,32.38
2023-04-01T07:18:44.317Z,31.58
2023-04-01T07:20:25.156Z,23.98
2023-04-01T07:22:02.966Z,22.77
2023-04-01T07:23:54.614Z,23.65
2023-04-01T07:25:44.667Z,24.98
2023-04-01T07:27:50.434Z,26.77
2023-04-01T07:29:25.064Z,30.58
2023-04-01T07:31:12.968Z,32.55
2023-04-01T07:32:53.179Z,30.67
2023-04-01T07:34:30.471Z,47.13
2023-04-01T07:36:10.723Z,50.42
2023-04-01T07:37:52.432Z,37.50
2023-04-01T07:39:36.603Z,35.83
2023-04-01T07:41:28.443Z,31.92
2023-04-01T07:43:27.283Z,23.85
2023-04-01T07:45:31.919Z,22.35
2023-04-01T07:47:22.001Z,17.67
2023-04-01T07:49:00.636Z,17.55
2023-04-01T07:50:38.995Z,14.48
2023-04-01T07:52:21.665Z,12.43
2023-04-01T07:54:08.445Z,13.57
2023-04-01T07:55:49.135Z,12.70
2023-04-01T07:57:27.596Z,11.15
2023-04-01T07:59:12.422Z,11.73
2023-04-01T08:01:13.919Z,10.38
2023-04-01T08:03:11.901Z,10.30
2023-04-01T08:05:05.484Z,11.85
2023-04-01T08:06:47.382Z,9.52
2023-04-01T08:08:28.140Z,8.63
2023-04-01T08:10:15.573Z,12.18
2023-04-01T08:12:23.058Z,9.13
2023-04-01T08:14:18.579Z,8.57
2023-04-01T08:16:18.536Z,8.63
2023-04-01T08:18:11.508Z,6.95
2023-04-01T08:19:58.443Z,8.27
2023-04-01T08:21:43.802Z,8.13
2023-04-01T08:23:20.833Z,7.80
2023-04-01T08:24:58.363Z,9.88
2023-04-01T08:26:37.265Z,9.23
2023-04-01T08:28:15.942Z,9.35
2023-04-01T08:29:57.641Z,8.60
2023-04-01T08:31:37.378Z,12.98
2023-04-01T08:33:17.976Z,15.60
2023-04-01T08:35:01.700Z,8.48
2023-04-01T08:36:45.824Z,11.32
2023-04-01T08:38:28.726Z,12.63
2023-04-01T08:40:12.577Z,9.57
2023-04-01T08:42:19.629Z,10.45
2023-04-01T08:44:21.783Z,10.10
2023-04-01T08:46:19.835Z,9.48
2023-04-01T08:48:09.481Z,9.23
2023-04-01T08:50:00.469Z,9.85
2023-04-01T08:52:34.436Z,9.60
2023-04-01T08:54:32.309Z,8.57
2023-04-01T08:56:17.353Z,9.23
2023-04-01T08:58:31.528Z,8.90
2023-04-01T09:00:33.773Z,7.47
2023-04-01T09:03:05.383Z,5.35
2023-04-01T09:05:06.845Z,7.40
2023-04-01T09:07:08.829Z,7.25
2023-04-01T09:09:01.393Z,10.80
2023-04-01T09:10:58.918Z,10.80
2023-04-01T09:13:10.999Z,9.98
2023-04-01T09:15:19.223Z,12.82
2023-04-01T09:17:35.251Z,13.57
2023-04-01T09:19:19.554Z,10.98
2023-04-01T09:21:20.012Z,11.65
2023-04-01T09:23:08.473Z,11.88
2023-04-01T09:24:58.854Z,11.00
2023-04-01T09:27:09.262Z,10.13
2023-04-01T09:28:53.548Z,11.85
2023-04-01T09:31:03.402Z,9.88
2023-04-01T09:33:09.029Z,9.25
2023-04-01T09:35:13.403Z,8.45
2023-04-01T09:36:48.598Z,8.82
2023-04-01T09:38:26.155Z,8.88
2023-04-01T09:40:14.452Z,8.02
2023-04-01T09:42:03.716Z,8.07
2023-04-01T09:44:01.072Z,8.90
2023-04-01T09:45:50.398Z,8.27
2023-04-01T09:47:42.588Z,13.75
2023-04-01T09:49:41.175Z,14.35
2023-04-01T09:51:28.643Z,11.88
2023-04-01T09:53:17.039Z,11.65
2023-04-01T09:55:02.107Z,14.98
2023-04-01T09:57:07.000Z,16.52
2023-04-01T09:59:10.730Z,15.35
2023-04-01T10:01:53.678Z,20.80
2023-04-01T10:04:10.766Z,21.13
2023-04-01T10:06:35.651Z,21.73
2023-04-01T10:08:31.059Z,17.80
2023-04-01T10:10:29.970Z,9.88
2023-04-01T10:12:27.236Z,8.27
2023-04-01T10:14:35.833Z,6.50
2023-04-01T10:16:32.429Z,5.63
2023-04-01T10:18:46.921Z,6.85
2023-04-01T10:21:07.998Z,5.03
2023-04-01T10:23:14.169Z,5.60
2023-04-01T10:25:07.530Z,7.10
2023-04-01T10:27:00.782Z,13.43
2023-04-01T10:29:40.321Z,8.50
2023-04-01T10:31:43.217Z,7.85
2023-04-01T10:33:43.914Z,7.07
2023-04-01T10:35:31.939Z,6.43
2023-04-01T10:37:18.022Z,6.97
2023-04-01T10:39:19.879Z,5.40
2023-04-01T10:41:41.512Z,6.63
2023-04-01T10:44:15.995Z,5.20
2023-04-01T10:46:17.600Z,5.57
2023-04-01T10:48:25.031Z,6.45
2023-04-01T10:50:26.344Z,5.38
2023-04-01T10:52:47.385Z,2.90
2023-04-01T10:54:44.186Z,4.57
2023-04-01T10:57:01.164Z,3.83
2023-04-01T10:59:18.653Z,3.60
2023-04-01T11:02:11.913Z,3.40
2023-04-01T11:04:42.849Z,2.97
2023-04-01T11:07:41.809Z,4.57
2023-04-01T11:09:42.530Z,7.15
2023-04-01T11:12:05.995Z,5.47
2023-04-01T11:14:19.141Z,4.15
2023-04-01T11:16:17.149Z,3.03
2023-04-01T11:18:35.862Z,32.70
2023-04-01T11:20:54.289Z,4.97
2023-04-01T11:22:58.883Z,4.03
2023-04-01T11:25:00.326Z,32.42
2023-04-01T11:27:06.419Z,2.65
2023-04-01T11:29:11.819Z,3.10
2023-04-01T11:30:59.834Z,1.77
2023-04-01T11:32:56.052Z,21.88
2023-04-01T11:34:53.895Z,3.60
2023-04-01T11:36:50.411Z,20.80
2023-04-01T11:38:49.143Z,30.92
2023-04-01T11:40:49.941Z,8.55
2023-04-01T11:42:47.757Z,5.40
2023-04-01T11:44:56.165Z,16.90
2023-04-01T11:46:47.247Z,29.38
2023-04-01T11:48:39.186Z,3.10
2023-04-01T11:50:28.078Z,24.60
2023-04-01T11:52:20.681Z,8.95
2023-04-01T11:54:06.483Z,9.57
2023-04-01T11:55:54.145Z,17.30
2023-04-01T11:57:45.692Z,2.67
2023-04-01T11:59:55.033Z,2.05
2023-04-01T12:01:39.075Z,2.35
2023-04-01T12:03:31.908Z,8.80
2023-04-01T12:05:39.093Z,17.75
2023-04-01T12:07:24.466Z,10.90
2023-04-01T12:09:04.511Z,16.13
2023-04-01T12:10:45.424Z,5.85
2023-04-01T12:12:26.483Z,5.65
2023-04-01T12:14:09.412Z,12.90
2023-04-01T12:15:58.584Z,7.63
2023-04-01T12:17:42.690Z,6.13
2023-04-01T12:19:24.425Z,4.93
2023-04-01T12:21:04.667Z,3.53
2023-04-01T12:22:50.718Z,7.72
2023-04-01T12:24:49.051Z,4.18
2023-04-01T12:26:45.673Z,3.90
2023-04-01T12:28:28.124Z,4.35
2023-04-01T12:30:42.796Z,7.13
2023-04-01T12:32:22.732Z,3.47
2023-04-01T12:34:10.542Z,2.50
2023-04-01T12:36:01.703Z,2.10
2023-04-01T12:37:43.676Z,36.67
2023-04-01T12:39:51.586Z,6.53
2023-04-01T12:41:35.422Z,4.60
2023-04-01T12:43:24.237Z,2.38
2023-04-01T12:45:14.630Z,4.07
2023-04-01T12:47:06.853Z,2.95
2023-04-01T12:49:13.479Z,3.78
2023-04-01T12:51:19.802Z,2.28
2023-04-01T12:53:12.397Z,1.63
2023-04-01T12:55:21.933Z,2.13
2023-04-01T12:57:12.100Z,1.70
2023-04-01T12:59:34.303Z,2.13
2023-04-01T13:01:28.437Z,2.85
2023-04-01T13:03:23.701Z,2.53
2023-04-01T13:05:22.759Z,2.15
2023-04-01T13:07:17.227Z,3.08
2023-04-01T13:09:00.326Z,4.55
2023-04-01T13:10:45.232Z,4.07
2023-04-01T13:12:51.288Z,3.38
2023-04-01T13:14:53.072Z,3.15
2023-04-01T13:16:29.524Z,3.13
2023-04-01T13:18:17.474Z,3.20
2023-04-01T13:20:04.897Z,2.72
2023-04-01T13:21:53.042Z,6.70
2023-04-01T13:23:38.259Z,3.92
2023-04-01T13:25:28.417Z,2.05
2023-04-01T13:27:11.120Z,3.95
2023-04-01T13:28:53.190Z,5.15
2023-04-01T13:30:31.188Z,4.00
2023-04-01T13:32:33.205Z,3.80
2023-04-01T13:34:31.268Z,3.08
2023-04-01T13:36:19.511Z,3.58
2023-04-01T13:38:05.411Z,2.15
2023-04-01T13:39:56.205Z,1.42
2023-04-01T13:41:51.157Z,2.10
2023-04-01T13:43:28.126Z,2.22
2023-04-01T13:45:05.746Z,4.90
2023-04-01T13:46:57.015Z,6.40
2023-04-01T13:49:01.340Z,5.03
2023-04-01T13:50:59.823Z,6.35
2023-04-01T13:53:00.413Z,4.53
2023-04-01T13:55:03.777Z,4.38
2023-04-01T13:56:47.886Z,4.88
2023-04-01T13:59:00.334Z,5.65
2023-04-01T14:00:41.698Z,4.38
2023-04-01T14:02:31.642Z,3.63
2023-04-01T14:04:31.921Z,6.32
2023-04-01T14:06:15.336Z,9.10
2023-04-01T14:08:01.807Z,5.63
2023-04-01T14:10:01.992Z,13.63
2023-04-01T14:11:46.634Z,3.97
2023-04-01T14:13:30.762Z,4.03
2023-04-01T14:15:23.582Z,3.72
2023-04-01T14:17:07.119Z,6.30
2023-04-01T14:18:55.542Z,11.70
2023-04-01T14:20:39.014Z,13.13
2023-04-01T14:22:22.847Z,8.05
2023-04-01T14:24:25.822Z,5.32
2023-04-01T14:26:28.243Z,7.07
2023-04-01T14:28:11.566Z,6.60
2023-04-01T14:29:59.489Z,8.52
2023-04-01T14:32:02.175Z,8.13
2023-04-01T14:33:44.660Z,6.65
2023-04-01T14:35:41.435Z,5.13
2023-04-01T14:37:34.318Z,5.50
2023-04-01T14:39:36.694Z,6.90
2023-04-01T14:41:22.788Z,11.98
2023-04-01T14:43:12.929Z,5.75
2023-04-01T14:45:20.371Z,3.63
2023-04-01T14:47:24.886Z,3.17
2023-04-01T14:49:03.034Z,3.50
2023-04-01T14:50:45.788Z,4.10
2023-04-01T14:52:27.168Z,3.13
2023-04-01T14:54:10.491Z,5.93
2023-04-01T14:55:53.138Z,17.58
2023-04-01T14:57:27.907Z,13.88
2023-04-01T14:59:02.874Z,8.30
2023-04-01T15:00:50.030Z,8.32
2023-04-01T15:02:46.742Z,11.63
2023-04-01T15:04:49.731Z,6.88
2023-04-01T15:06:53.565Z,7.32
2023-04-01T15:08:31.221Z,9.93
2023-04-01T15:10:20.863Z,8.77
2023-04-01T15:12:05.714Z,4.45
2023-04-01T15:14:01.604Z,6.63
2023-04-01T15:15:58.759Z,6.93
2023-04-01T15:17:45.881Z,7.47
2023-04-01T15:19:27.169Z,8.05
2023-04-01T15:21:20.759Z,11.02
2023-04-01T15:23:09.200Z,6.85
2023-04-01T15:24:49.289Z,5.93
2023-04-01T15:26:53.403Z,6.68
2023-04-01T15:28:35.646Z,3.88
2023-04-01T15:30:33.083Z,2.85
2023-04-01T15:32:18.976Z,4.05
2023-04-01T15:34:22.937Z,5.72
2023-04-01T15:36:04.204Z,6.18
2023-04-01T15:37:48.192Z,4.20
2023-04-01T15:39:27.785Z,3.92
2023-04-01T15:41:09.956Z,3.88
2023-04-01T15:42:59.520Z,3.35
2023-04-01T15:45:04.129Z,2.70
2023-04-01T15:46:47.013Z,3.00
2023-04-01T15:48:35.757Z,4.25
2023-04-01T15:50:31.068Z,3.40
2023-04-01T15:52:21.614Z,11.10
2023-04-01T15:54:10.558Z,5.18
2023-04-01T15:55:50.548Z,7.95
2023-04-01T15:57:31.022Z,6.25
2023-04-01T15:59:19.012Z,10.20
2023-04-01T16:00:57.301Z,7.00
2023-04-01T16:02:37.272Z,6.07
2023-04-01T16:04:27.945Z,6.03
2023-04-01T16:06:23.249Z,2.40
2023-04-01T16:08:18.670Z,2.70
2023-04-01T16:10:08.098Z,3.65
2023-04-01T16:11:53.126Z,10.38
2023-04-01T16:13:43.960Z,6.35
2023-04-01T16:15:27.097Z,6.85
2023-04-01T16:17:21.597Z,6.93
2023-04-01T16:19:10.111Z,10.18
2023-04-01T16:20:53.463Z,11.98
2023-04-01T16:22:33.255Z,4.70
2023-04-01T16:24:17.485Z,5.50
2023-04-01T16:26:00.032Z,10.88
2023-04-01T16:27:43.548Z,7.05
2023-04-01T16:29:26.032Z,7.00
2023-04-01T16:31:06.536Z,5.95
2023-04-01T16:32:46.259Z,6.45
2023-04-01T16:34:23.529Z,42.17
2023-04-01T16:36:02.039Z,47.20
2023-04-01T16:37:42.118Z,44.13
2023-04-01T16:39:30.036Z,37.00
2023-04-01T16:41:15.373Z,21.95
2023-04-01T16:42:53.750Z,21.48
2023-04-01T16:44:28.597Z,22.90
2023-04-01T16:46:30.205Z,19.58
2023-04-01T16:48:13.627Z,19.88
2023-04-01T16:49:53.344Z,17.95
2023-04-01T16:51:35.101Z,23.27
2023-04-01T16:53:17.123Z,44.97
2023-04-01T16:54:55.603Z,35.70
2023-04-01T16:56:40.187Z,35.13
2023-04-01T16:58:22.731Z,47.25
2023-04-01T17:00:02.019Z,33.40
2023-04-01T17:01:45.151Z,23.20
2023-04-01T17:03:23.984Z,22.70
2023-04-01T17:05:03.014Z,25.83
2023-04-01T17:06:45.908Z,13.23
2023-04-01T17:08:31.387Z,14.80
2023-04-01T17:10:23.777Z,16.08
2023-04-01T17:12:04.379Z,29.60
2023-04-01T17:13:47.047Z,34.47
2023-04-01T17:15:31.287Z,21.05
2023-04-01T17:17:18.086Z,15.48
2023-04-01T17:18:58.013Z,20.98
2023-04-01T17:20:42.747Z,19.90
2023-04-01T17:22:31.810Z,25.75
2023-04-01T17:24:21.140Z,27.70
2023-04-01T17:26:08.273Z,33.60
2023-04-01T17:27:50.183Z,28.42
2023-04-01T17:29:31.040Z,31.40
2023-04-01T17:31:13.110Z,30.25
2023-04-01T17:33:05.042Z,31.15
2023-04-01T17:34:48.936Z,25.00
2023-04-01T17:36:35.426Z,27.25
2023-04-01T17:38:22.088Z,26.77
2023-04-01T17:40:06.803Z,19.75
2023-04-01T17:41:49.821Z,23.55
2023-04-01T17:43:36.545Z,21.83
2023-04-01T17:45:13.681Z,19.35
2023-04-01T17:47:01.706Z,16.45
2023-04-01T17:48:44.544Z,17.98
2023-04-01T17:50:24.359Z,12.23
2023-04-01T17:52:06.758Z,8.68
2023-04-01T17:53:50.284Z,8.95
2023-04-01T17:55:42.056Z,5.10
2023-04-01T17:57:40.972Z,4.03
2023-04-01T17:59:25.359Z,3.60
2023-04-01T18:01:10.143Z,3.60
2023-04-01T18:02:50.933Z,3.60
2023-04-01T18:05:01.007Z,3.70
2023-04-01T18:06:39.530Z,4.45
2023-04-01T18:08:19.777Z,3.05
2023-04-01T18:10:18.005Z,1.75
2023-04-01T18:12:01.631Z,2.92
2023-04-01T18:13:58.080Z,3.38
2023-04-01T18:15:39.944Z,2.90
2023-04-01T18:17:25.907Z,3.60
2023-04-01T18:19:07.402Z,4.30
2023-04-01T18:20:53.402Z,1.83
2023-04-01T18:22:54.976Z,3.60
2023-04-01T18:24:32.903Z,4.20
2023-04-01T18:26:14.048Z,4.28
2023-04-01T18:27:51.573Z,3.88
2023-04-01T18:29:37.690Z,3.10
2023-04-01T18:31:27.154Z,4.30
2023-04-01T18:33:07.458Z,6.32
2023-04-01T18:34:53.151Z,9.18
2023-04-01T18:36:38.122Z,5.90
2023-04-01T18:38:15.538Z,6.18
2023-04-01T18:39:56.924Z,5.38
2023-04-01T18:41:38.186Z,3.13
2023-04-01T18:43:19.741Z,5.22
2023-04-01T18:44:58.642Z,5.43
2023-04-01T18:46:41.304Z,4.80
2023-04-01T18:48:25.508Z,4.32
2023-04-01T18:50:08.826Z,3.22
2023-04-01T18:51:51.140Z,3.60
2023-04-01T18:53:33.165Z,3.20
2023-04-01T18:55:36.237Z,3.40
2023-04-01T18:57:15.599Z,2.65
2023-04-01T18:58:55.433Z,4.57
2023-04-01T19:00:35.132Z,5.00
2023-04-01T19:02:22.222Z,4.65
2023-04-01T19:04:05.775Z,2.40
2023-04-01T19:05:42.334Z,3.60
2023-04-01T19:07:42.734Z,4.97
2023-04-01T19:09:26.943Z,5.18
2023-04-01T19:11:19.130Z,4.05
2023-04-01T19:13:09.689Z,4.07
2023-04-01T19:14:56.404Z,4.05
2023-04-01T19:16:47.124Z,3.95
2023-04-01T19:18:37.135Z,10.02
2023-04-01T19:20:21.764Z,9.75
2023-04-01T19:22:00.520Z,10.73
2023-04-01T19:24:09.894Z,11.43
2023-04-01T19:25:50.302Z,13.60
2023-04-01T19:27:36.214Z,13.23
2023-04-01T19:29:24.550Z,12.43
2023-04-01T19:31:01.334Z,12.45
2023-04-01T19:32:51.084Z,14.05
2023-04-01T19:34:31.341Z,14.15
2023-04-01T19:36:13.824Z,13.93
2023-04-01T19:37:53.851Z,10.55
2023-04-01T19:39:39.888Z,11.27
2023-04-01T19:41:27.766Z,11.80
2023-04-01T19:43:10.900Z,11.02
2023-04-01T19:44:56.637Z,10.23
2023-04-01T19:46:36.013Z,4.72
2023-04-01T19:48:23.006Z,4.28
2023-04-01T19:50:07.847Z,3.13
2023-04-01T19:51:51.261Z,2.65
2023-04-01T19:53:34.495Z,3.40
2023-04-01T19:55:20.880Z,3.70
2023-04-01T19:57:03.511Z,2.13
2023-04-01T19:58:46.810Z,1.50
2023-04-01T20:00:28.227Z,1.33
2023-04-01T20:02:24.235Z,1.25
2023-04-01T20:04:04.691Z,1.08
2023-04-01T20:06:04.096Z,2.10
2023-04-01T20:07:43.499Z,1.20
2023-04-01T20:09:43.330Z,1.08
2023-04-01T20:11:30.617Z,1.15
2023-04-01T20:13:14.311Z,0.82
2023-04-01T20:14:51.293Z,1.48
2023-04-01T20:16:45.960Z,1.35
2023-04-01T20:18:24.443Z,0.77
2023-04-01T20:20:01.553Z,1.48
2023-04-01T20:21:38.723Z,1.10
2023-04-01T20:23:42.682Z,1.20
2023-04-01T20:25:21.014Z,0.93
2023-04-01T20:27:05.516Z,0.90
2023-04-01T20:28:49.835Z,0.88
2023-04-01T20:30:45.767Z,0.70
2023-04-01T20:32:40.754Z,0.73
2023-04-01T20:34:28.981Z,0.70
2023-04-01T20:36:13.980Z,0.90
2023-04-01T20:37:56.116Z,0.63
2023-04-01T20:40:19.932Z,1.23
2023-04-01T20:42:08.925Z,0.70
2023-04-01T20:43:55.136Z,1.00
2023-04-01T20:45:36.621Z,1.20
2023-04-01T20:47:25.167Z,1.00
2023-04-01T20:49:25.733Z,0.90
2023-04-01T20:51:01.525Z,0.90
2023-04-01T20:52:40.113Z,1.60
2023-04-01T20:54:28.414Z,1.38
2023-04-01T20:56:26.897Z,1.80
2023-04-01T20:58:14.118Z,1.60
2023-04-01T21:00:05.964Z,1.35
2023-04-01T21:01:46.958Z,1.45
2023-04-01T21:03:38.621Z,1.88
2023-04-01T21:05:47.447Z,1.48
2023-04-01T21:07:26.867Z,2.40
2023-04-01T21:09:22.191Z,2.67
2023-04-01T21:11:05.910Z,2.72
2023-04-01T21:12:50.370Z,3.00
2023-04-01T21:14:47.987Z,3.50
2023-04-01T21:16:32.008Z,2.72
2023-04-01T21:18:32.759Z,6.72
2023-04-01T21:20:38.470Z,8.27
2023-04-01T21:22:52.104Z,8.27
2023-04-01T21:24:58.606Z,4.22
2023-04-01T21:26:54.614Z,4.70
2023-04-01T21:28:44.520Z,4.72
2023-04-01T21:30:35.334Z,5.50
2023-04-01T21:32:24.992Z,6.07
2023-04-01T21:34:35.110Z,5.05
2023-04-01T21:36:21.577Z,4.47
2023-04-01T21:38:26.122Z,3.20
2023-04-01T21:40:34.294Z,4.00
2023-04-01T21:42:26.526Z,2.22
2023-04-01T21:44:29.837Z,4.38
2023-04-01T21:46:27.480Z,6.05
2023-04-01T21:48:37.150Z,5.55
2023-04-01T21:50:46.182Z,5.30
2023-04-01T21:52:48.019Z,4.90
2023-04-01T21:54:54.640Z,4.10
2023-04-01T21:57:00.418Z,4.43
2023-04-01T21:59:07.220Z,5.18
2023-04-01T22:00:50.212Z,4.00
2023-04-01T22:02:55.860Z,4.47
2023-04-01T22:04:44.567Z,5.57
2023-04-01T22:06:28.195Z,5.43
2023-04-01T22:08:16.771Z,5.03
2023-04-01T22:10:01.391Z,5.70
2023-04-01T22:11:46.169Z,5.53
2023-04-01T22:13:26.053Z,5.45
2023-04-01T22:15:06.884Z,5.18
2023-04-01T22:16:48.270Z,6.07
2023-04-01T22:18:29.969Z,3.60
2023-04-01T22:20:18.709Z,3.83
2023-04-01T22:22:03.944Z,3.80
2023-04-01T22:23:44.379Z,3.47
2023-04-01T22:25:24.581Z,2.35
2023-04-01T22:27:05.411Z,3.58
2023-04-01T22:28:45.071Z,3.63
2023-04-01T22:30:25.208Z,1.92
2023-04-01T22:32:05.725Z,2.53
2023-04-01T22:33:49.276Z,1.98
2023-04-01T22:35:35.916Z,2.20
2023-04-01T22:37:20.568Z,2.08
2023-04-01T22:39:11.521Z,2.00
2023-04-01T22:40:53.627Z,1.90
2023-04-01T22:42:42.102Z,1.58
2023-04-01T22:44:31.719Z,1.65
2023-04-01T22:46:23.664Z,1.85
2023-04-01T22:48:07.694Z,1.40
2023-04-01T22:49:48.088Z,1.20
2023-04-01T22:51:25.676Z,1.90
2023-04-01T22:53:07.632Z,1.63
2023-04-01T22:54:44.263Z,1.83
2023-04-01T22:56:23.320Z,1.33
2023-04-01T22:58:02.304Z,1.67
2023-04-01T22:59:41.522Z,1.65
2023-04-01T23:01:18.766Z,2.17
2023-04-01T23:03:09.708Z,1.67
2023-04-01T23:04:45.906Z,1.02
2023-04-01T23:06:23.009Z,1.35
2023-04-01T23:08:05.358Z,1.38
2023-04-01T23:09:40.658Z,1.60
2023-04-01T23:11:18.301Z,1.88
2023-04-01T23:12:54.755Z,2.03
2023-04-01T23:14:53.265Z,1.80
2023-04-01T23:16:33.568Z,1.63
2023-04-01T23:18:23.099Z,1.73
2023-04-01T23:20:07.054Z,2.28
2023-04-01T23:21:47.255Z,1.35
2023-04-01T23:23:32.507Z,1.30
2023-04-01T23:25:20.288Z,1.20